Time;durP1;ratioP1;P1;durP2;ratioP2;P2;SDS_P1;SDS_P2;PMS_P1;PMS_P2;Temp;Humidity;BMP_temperature;BMP_pressure;BME280_temperature;BME280_humidity;BME280_pressure;Samples;Min_cycle;Max_cycle;Signal;HPM_P1;HPM_P2
2023/07/09 00:02:16;;;;;;;6.38;3.70;;;;;;;16.51;99.09;102132.53;5044196;28;20082;-72
2023/07/09 00:04:42;;;;;;;7.90;3.78;;;;;;;16.54;98.71;102128.59;5041053;28;20461;-73
2023/07/09 00:07:17;;;;;;;6.78;3.78;;;;;;;16.52;98.97;102133.38;5059186;28;20033;-72
2023/07/09 00:09:42;;;;;;;8.98;3.80;;;;;;;16.53;99.09;102132.34;5041082;28;20115;-72
2023/07/09 00:12:14;;;;;;;5.25;3.78;;;;;;;16.49;99.29;102141.94;5041351;28;20052;-72
2023/07/09 00:14:40;;;;;;;7.22;3.72;;;;;;;16.39;99.11;102118.75;5041399;28;20462;-73
2023/07/09 00:17:21;;;;;;;6.07;3.95;;;;;;;16.44;99.29;102137.13;5058372;28;20021;-73
2023/07/09 00:19:46;;;;;;;7.25;3.90;;;;;;;16.28;99.35;102115.78;5041174;28;20079;-72
2023/07/09 00:22:17;;;;;;;4.90;3.92;;;;;;;16.39;99.32;102132.31;5041517;28;20029;-73
2023/07/09 00:24:47;;;;;;;5.80;3.80;;;;;;;16.32;99.63;102130.63;5059233;28;20033;-73
2023/07/09 00:27:16;;;;;;;9.85;4.38;;;;;;;16.22;99.88;102125.56;5058801;28;20075;-73
2023/07/09 00:29:42;;;;;;;7.57;3.45;;;;;;;16.24;99.68;102119.94;5059014;28;20145;-72
2023/07/09 00:32:11;;;;;;;7.47;4.30;;;;;;;16.28;99.88;102132.06;5058551;28;20453;-73
2023/07/09 00:34:38;;;;;;;7.22;3.95;;;;;;;16.20;99.62;102133.09;5059091;28;20024;-73
2023/07/09 00:37:09;;;;;;;4.88;3.42;;;;;;;16.19;99.87;102123.25;5057775;28;20484;-72
2023/07/09 00:39:35;;;;;;;6.65;4.15;;;;;;;16.13;99.92;102122.22;5058068;28;20037;-73
2023/07/09 00:42:00;;;;;;;5.75;3.75;;;;;;;16.08;99.64;102127.41;5058961;28;20068;-73
2023/07/09 00:44:31;;;;;;;6.53;3.38;;;;;;;16.05;99.58;102122.38;5040600;28;20116;-73
2023/07/09 00:47:02;;;;;;;6.28;4.20;;;;;;;16.03;99.81;102127.19;5060265;28;20412;-72
2023/07/09 00:49:35;;;;;;;6.88;3.97;;;;;;;15.92;100.00;102125.88;5042146;28;20041;-72
2023/07/09 00:52:17;;;;;;;10.13;3.95;;;;;;;15.98;99.98;102138.66;5060683;28;20051;-72
2023/07/09 00:54:46;;;;;;;8.98;4.07;;;;;;;15.91;100.00;102120.66;5062487;28;20048;-72
2023/07/09 00:57:19;;;;;;;5.60;3.97;;;;;;;15.98;99.93;102135.09;5062909;28;20021;-72
2023/07/09 00:59:57;;;;;;;6.55;3.58;;;;;;;15.97;99.90;102131.56;5062552;28;20172;-72
2023/07/09 01:02:25;;;;;;;5.78;3.90;;;;;;;15.93;100.00;102140.31;5062339;28;20057;-72
2023/07/09 01:05:00;;;;;;;7.45;3.90;;;;;;;15.88;100.00;102135.47;5062314;28;20036;-72
2023/07/09 01:07:27;;;;;;;4.72;3.80;;;;;;;15.90;100.00;102129.84;5044186;28;20051;-72
2023/07/09 01:09:53;;;;;;;8.50;4.35;;;;;;;15.93;100.00;102129.47;5061455;28;20029;-72
2023/07/09 01:12:20;;;;;;;15.00;4.10;;;;;;;15.93;100.00;102129.47;5043225;28;20110;-72
2023/07/09 01:14:51;;;;;;;5.47;3.75;;;;;;;15.89;100.00;102126.31;5061115;28;20029;-72
2023/07/09 01:17:17;;;;;;;5.63;3.55;;;;;;;15.71;100.00;102101.56;5043728;28;20033;-72
2023/07/09 01:19:44;;;;;;;9.45;3.70;;;;;;;15.91;100.00;102128.81;5044311;28;20108;-72
2023/07/09 01:22:15;;;;;;;6.70;3.85;;;;;;;15.84;100.00;102111.66;5062542;28;20028;-72
2023/07/09 01:24:47;;;;;;;6.20;3.47;;;;;;;15.88;100.00;102130.03;5054865;28;20046;-72
2023/07/09 01:27:13;;;;;;;3.92;3.30;;;;;;;15.76;100.00;102106.38;5062222;28;20025;-72
2023/07/09 01:29:39;;;;;;;5.38;3.60;;;;;;;15.77;100.00;102111.63;5044216;28;20052;-72
2023/07/09 01:32:06;;;;;;;6.00;3.60;;;;;;;15.81;100.00;102131.91;5044142;28;20094;-72
2023/07/09 01:34:32;;;;;;;6.28;3.75;;;;;;;15.76;100.00;102123.53;5043230;28;20112;-72
2023/07/09 01:36:58;;;;;;;6.35;3.65;;;;;;;15.71;100.00;102129.53;5043619;28;20036;-71
2023/07/09 01:39:25;;;;;;;5.28;3.67;;;;;;;15.70;100.00;102127.06;5060366;28;20033;-71
2023/07/09 01:41:51;;;;;;;5.85;3.80;;;;;;;15.65;100.00;102127.59;5044248;28;20025;-71
2023/07/09 01:44:17;;;;;;;5.65;3.38;;;;;;;15.65;100.00;102132.19;5044203;28;20053;-71
2023/07/09 01:46:45;;;;;;;4.30;3.30;;;;;;;15.67;100.00;102131.00;5062603;28;20041;-71
2023/07/09 01:49:11;;;;;;;4.85;3.20;;;;;;;15.68;100.00;102135.38;5042853;28;20030;-71
2023/07/09 01:51:38;;;;;;;5.65;3.53;;;;;;;15.66;99.74;102133.84;5060744;28;20032;-71
2023/07/09 01:54:04;;;;;;;4.50;3.35;;;;;;;15.61;100.00;102139.91;5043788;28;20029;-72
2023/07/09 01:56:29;;;;;;;4.88;3.40;;;;;;;15.58;99.53;102139.47;5061350;28;20025;-71
2023/07/09 01:59:00;;;;;;;6.40;3.15;;;;;;;15.56;99.55;102144.22;5042573;28;20040;-71
2023/07/09 02:01:27;;;;;;;4.32;3.20;;;;;;;15.50;99.98;102135.88;5061231;28;20031;-71
2023/07/09 02:03:53;;;;;;;4.65;3.00;;;;;;;15.49;99.72;102138.78;5058929;28;20032;-72
2023/07/09 02:06:19;;;;;;;8.15;3.28;;;;;;;15.39;99.66;102125.56;5059264;28;20033;-71
2023/07/09 02:08:45;;;;;;;5.88;3.53;;;;;;;15.48;99.71;102153.38;5059906;28;20067;-71
2023/07/09 02:11:11;;;;;;;6.63;3.30;;;;;;;15.46;99.10;102155.44;5060875;28;20103;-71
2023/07/09 02:13:36;;;;;;;6.05;3.60;;;;;;;15.38;99.85;102145.59;5061070;28;20029;-71
2023/07/09 02:16:02;;;;;;;5.43;3.30;;;;;;;15.41;99.30;102153.34;5043280;28;20037;-71
2023/07/09 02:18:28;;;;;;;6.40;3.25;;;;;;;15.43;99.71;102142.28;5060791;28;20021;-71
2023/07/09 02:20:54;;;;;;;6.38;3.50;;;;;;;15.40;99.31;102124.53;5042601;28;20032;-72
2023/07/09 02:23:19;;;;;;;6.07;3.08;;;;;;;15.44;99.35;102141.25;5059744;28;20036;-72
2023/07/09 02:25:45;;;;;;;6.03;3.03;;;;;;;15.44;99.41;102139.38;5042286;28;20043;-71
2023/07/09 02:28:10;;;;;;;5.72;3.58;;;;;;;15.41;99.29;102153.34;5041809;28;20036;-71
2023/07/09 02:30:36;;;;;;;8.25;3.50;;;;;;;15.40;99.20;102151.66;5059771;28;20480;-71
2023/07/09 02:33:01;;;;;;;4.97;3.40;;;;;;;15.33;99.58;102142.66;5043204;28;20033;-71
2023/07/09 02:35:27;;;;;;;5.45;3.30;;;;;;;15.34;99.57;102136.19;5043451;28;20033;-71
2023/07/09 02:37:52;;;;;;;4.88;3.40;;;;;;;15.40;98.95;102140.81;5072294;28;20094;-72
2023/07/09 02:40:18;;;;;;;7.65;3.55;;;;;;;15.37;99.07;102132.25;5063375;28;20040;-71
2023/07/09 02:42:43;;;;;;;6.18;3.45;;;;;;;15.44;98.99;102141.25;5024315;28;20086;-71
2023/07/09 02:45:10;;;;;;;8.07;3.70;;;;;;;15.43;98.72;102143.13;5061530;28;20431;-72
2023/07/09 02:47:35;;;;;;;6.85;3.42;;;;;;;15.48;98.40;102142.53;5060740;28;20112;-71
2023/07/09 02:50:01;;;;;;;5.65;3.50;;;;;;;15.70;97.92;102141.44;5059018;28;20061;-71
2023/07/09 02:52:26;;;;;;;6.90;3.22;;;;;;;16.06;95.20;102123.22;5043126;28;20123;-71
2023/07/09 02:54:52;;;;;;;7.78;3.38;;;;;;;16.53;93.51;102145.94;5042095;28;20025;-71
2023/07/09 02:57:18;;;;;;;8.55;3.70;;;;;;;16.73;92.09;102135.09;5042229;28;20037;-71
2023/07/09 02:59:43;;;;;;;5.57;3.78;;;;;;;17.03;90.42;102147.28;5060427;28;20044;-71
2023/07/09 03:02:09;;;;;;;5.47;3.67;;;;;;;17.35;89.03;102148.31;5041904;28;20499;-71
2023/07/09 03:04:34;;;;;;;6.95;3.20;;;;;;;17.64;87.58;102145.31;5041802;28;20098;-72
2023/07/09 03:07:00;;;;;;;7.03;3.35;;;;;;;17.95;85.95;102150.91;5041754;28;20063;-71
2023/07/09 03:09:26;;;;;;;6.22;3.75;;;;;;;18.39;84.87;102145.66;5059822;28;20021;-72
2023/07/09 03:11:52;;;;;;;6.43;3.53;;;;;;;18.41;84.45;102132.63;5042498;28;20507;-72
2023/07/09 03:14:17;;;;;;;7.80;3.85;;;;;;;18.63;84.18;102147.59;5042110;28;20064;-72
2023/07/09 03:16:44;;;;;;;4.32;3.25;;;;;;;19.04;82.64;102149.00;5041765;28;20037;-71
2023/07/09 03:19:10;;;;;;;5.25;3.53;;;;;;;19.27;80.89;102153.00;5040091;28;20036;-72
2023/07/09 03:21:35;;;;;;;5.65;3.03;;;;;;;19.58;79.44;102152.06;5064909;28;20067;-71
2023/07/09 03:24:01;;;;;;;4.65;3.10;;;;;;;19.96;77.65;102154.59;5067953;28;20033;-72
2023/07/09 03:26:27;;;;;;;4.30;3.03;;;;;;;20.02;76.70;102155.56;5040393;28;20123;-72
2023/07/09 03:28:53;;;;;;;3.97;2.80;;;;;;;19.78;77.31;102152.72;5057710;28;20025;-72
2023/07/09 03:31:18;;;;;;;6.38;2.80;;;;;;;19.31;79.37;102140.59;5041648;28;20071;-71
2023/07/09 03:33:47;;;;;;;7.30;2.90;;;;;;;19.55;79.57;102152.50;5040913;28;20028;-72
2023/07/09 03:36:13;;;;;;;3.95;2.90;;;;;;;19.65;78.51;102150.97;5040048;28;20021;-72
2023/07/09 03:38:39;;;;;;;5.80;2.90;;;;;;;19.15;79.91;102140.09;5057227;28;20545;-72
2023/07/09 03:41:04;;;;;;;5.47;3.13;;;;;;;19.02;81.30;102151.94;5058872;28;20080;-71
2023/07/09 03:43:30;;;;;;;3.53;2.80;;;;;;;18.90;81.55;102142.81;5042042;28;20051;-72
2023/07/09 03:45:55;;;;;;;3.75;2.60;;;;;;;19.00;81.26;102148.59;5059519;28;20064;-72
2023/07/09 03:48:21;;;;;;;7.38;2.70;;;;;;;19.04;80.99;102156.34;5058118;28;20098;-72
2023/07/09 03:50:47;;;;;;;5.70;2.97;;;;;;;18.86;80.93;102135.31;5041716;28;20060;-72
2023/07/09 03:53:13;;;;;;;3.75;2.38;;;;;;;19.00;80.51;102154.06;5058857;28;20056;-72
2023/07/09 03:55:39;;;;;;;4.20;2.40;;;;;;;18.90;80.97;102141.97;5058711;28;20067;-72
2023/07/09 03:58:05;;;;;;;6.40;2.70;;;;;;;18.90;81.27;102153.72;5041484;28;20414;-72
2023/07/09 04:00:32;;;;;;;5.03;3.08;;;;;;;18.77;82.06;102160.13;5059299;28;20094;-72
2023/07/09 04:02:57;;;;;;;5.20;2.80;;;;;;;18.87;81.87;102154.16;5059287;28;20106;-72
2023/07/09 04:05:24;;;;;;;4.38;2.97;;;;;;;18.99;81.20;102167.94;5062689;28;20036;-72
2023/07/09 04:07:49;;;;;;;4.50;2.70;;;;;;;19.15;80.11;102166.53;5070115;28;20036;-72
2023/07/09 04:10:15;;;;;;;5.00;3.08;;;;;;;19.23;79.53;102161.63;5040180;28;20061;-72
2023/07/09 04:12:41;;;;;;;4.60;2.70;;;;;;;19.44;78.52;102165.84;5057581;28;20419;-72
2023/07/09 04:15:07;;;;;;;3.90;3.00;;;;;;;19.59;77.64;102160.03;5024905;28;20035;-72
2023/07/09 04:17:33;;;;;;;5.38;2.60;;;;;;;19.82;77.12;102169.47;5057049;28;20032;-72
2023/07/09 04:19:58;;;;;;;4.25;2.60;;;;;;;20.10;75.93;102160.75;5040443;28;20025;-72
2023/07/09 04:22:24;;;;;;;3.65;2.63;;;;;;;20.06;76.06;102157.59;5044346;28;20032;-72
2023/07/09 04:24:51;;;;;;;4.47;2.80;;;;;;;20.13;75.72;102135.66;5061499;28;20120;-72
2023/07/09 04:27:17;;;;;;;4.32;2.90;;;;;;;20.36;75.26;102154.94;5062427;28;20400;-72
2023/07/09 04:29:43;;;;;;;5.07;2.78;;;;;;;20.55;74.94;102161.19;5062723;28;20021;-72
2023/07/09 04:32:13;;;;;;;6.65;2.67;;;;;;;20.96;73.70;102151.31;5060964;28;20513;-72
2023/07/09 04:34:41;;;;;;;3.80;2.80;;;;;;;21.44;71.36;102155.75;5043148;28;20029;-72
2023/07/09 04:37:09;;;;;;;5.05;2.80;;;;;;;21.92;69.50;102157.38;5059725;28;20510;-71
2023/07/09 04:39:35;;;;;;;3.28;2.60;;;;;;;22.41;67.66;102155.06;5041927;28;20392;-71
2023/07/09 04:42:00;;;;;;;5.85;2.65;;;;;;;22.75;66.38;102155.13;5062498;28;20039;-72
2023/07/09 04:44:26;;;;;;;4.13;2.42;;;;;;;23.14;65.23;102158.00;5061794;28;20049;-71
2023/07/09 04:46:51;;;;;;;2.55;2.28;;;;;;;23.44;64.48;102143.88;5044816;28;20051;-72
2023/07/09 04:49:17;;;;;;;4.25;2.53;;;;;;;23.78;63.64;102155.66;5064346;28;20526;-72
2023/07/09 04:51:42;;;;;;;4.90;2.53;;;;;;;23.56;64.42;102135.53;5059729;28;20052;-72
2023/07/09 04:54:08;;;;;;;4.50;2.33;;;;;;;23.61;65.41;102154.84;5046140;28;20025;-72
2023/07/09 04:56:33;;;;;;;2.63;2.28;;;;;;;23.86;64.97;102154.38;5042735;28;20051;-72
2023/07/09 04:58:58;;;;;;;3.72;2.45;;;;;;;24.42;63.75;102154.22;5062649;28;20029;-72
2023/07/09 05:01:24;;;;;;;5.20;2.50;;;;;;;24.73;62.41;102152.59;5062605;28;20041;-72
2023/07/09 05:03:49;;;;;;;3.60;2.30;;;;;;;24.77;62.75;102159.25;5044511;28;20094;-72
2023/07/09 05:06:15;;;;;;;4.03;2.22;;;;;;;24.80;62.71;102132.03;5044583;28;20127;-72
2023/07/09 05:08:42;;;;;;;3.80;2.15;;;;;;;25.09;62.11;102137.19;5044789;28;20128;-72
2023/07/09 05:11:10;;;;;;;5.20;2.60;;;;;;;25.49;60.64;102161.44;5044286;28;20040;-71
2023/07/09 05:13:36;;;;;;;2.85;2.00;;;;;;;25.69;59.46;102159.91;5044701;28;20124;-72
2023/07/09 05:16:01;;;;;;;5.63;2.30;;;;;;;25.53;60.29;102165.34;5044945;28;20068;-72
2023/07/09 05:18:27;;;;;;;6.18;2.13;;;;;;;25.43;60.82;102164.44;5044651;28;20043;-71
2023/07/09 05:20:52;;;;;;;3.88;2.25;;;;;;;25.55;59.59;102165.06;5027459;28;20036;-72
2023/07/09 05:23:18;;;;;;;6.05;2.28;;;;;;;25.56;59.14;102155.69;5045657;28;20104;-72
2023/07/09 05:25:44;;;;;;;5.13;2.25;;;;;;;25.69;59.14;102163.50;5043554;28;20065;-72
2023/07/09 05:28:09;;;;;;;6.07;2.35;;;;;;;25.54;58.12;102167.00;5045440;28;20433;-72
2023/07/09 05:30:35;;;;;;;4.93;2.13;;;;;;;25.64;55.85;102160.72;5054215;28;20025;-72
2023/07/09 05:33:00;;;;;;;5.07;2.20;;;;;;;25.56;55.19;102158.47;5042887;28;20025;-72
2023/07/09 05:35:26;;;;;;;3.72;2.20;;;;;;;25.46;54.58;102156.50;5061161;28;20039;-72
2023/07/09 05:37:55;;;;;;;3.53;2.08;;;;;;;25.29;54.13;102151.13;5037763;28;20029;-72
2023/07/09 05:40:22;;;;;;;4.07;2.13;;;;;;;25.45;54.70;102167.78;5041775;28;20071;-73
2023/07/09 05:42:48;;;;;;;6.25;2.20;;;;;;;25.76;54.55;102171.50;5063231;28;20395;-71
2023/07/09 05:45:14;;;;;;;7.25;2.55;;;;;;;25.76;54.00;102161.34;5059874;28;20052;-72
2023/07/09 05:47:40;;;;;;;5.57;2.15;;;;;;;25.58;53.88;102159.03;5043347;28;20070;-72
2023/07/09 05:50:06;;;;;;;4.60;2.00;;;;;;;25.65;54.22;102156.84;5062060;28;20114;-72
2023/07/09 05:52:31;;;;;;;4.03;2.13;;;;;;;25.75;54.24;102158.84;5060549;28;20124;-72
2023/07/09 05:54:57;;;;;;;6.00;2.33;;;;;;;25.60;54.35;102156.03;5062473;28;20032;-72
2023/07/09 05:57:22;;;;;;;3.42;2.17;;;;;;;25.51;54.83;102156.50;5044481;28;20121;-72
2023/07/09 05:59:48;;;;;;;4.95;2.30;;;;;;;25.61;55.29;102149.41;5044281;28;20051;-72
2023/07/09 06:02:16;;;;;;;4.25;2.40;;;;;;;25.73;55.48;102150.84;5061989;28;20029;-72
2023/07/09 06:04:42;;;;;;;3.72;2.25;;;;;;;25.83;55.47;102154.75;5043177;28;20078;-72
2023/07/09 06:07:09;;;;;;;3.30;2.20;;;;;;;25.73;54.58;102155.53;5043304;28;20029;-72
2023/07/09 06:09:35;;;;;;;4.75;2.53;;;;;;;25.71;55.04;102153.03;5060210;28;20092;-72
2023/07/09 06:12:03;;;;;;;4.97;2.30;;;;;;;25.80;55.19;102158.06;5061186;28;20021;-72
2023/07/09 06:14:29;;;;;;;4.15;2.35;;;;;;;25.71;55.01;102158.53;5043867;28;20098;-72
2023/07/09 06:16:54;;;;;;;8.25;2.40;;;;;;;25.41;54.89;102150.13;5061812;28;20472;-72
2023/07/09 06:19:19;;;;;;;4.25;2.53;;;;;;;25.20;54.71;102150.00;5043503;28;20036;-72
2023/07/09 06:21:45;;;;;;;5.13;2.47;;;;;;;24.99;54.75;102150.88;5044063;28;20091;-72
2023/07/09 06:24:11;;;;;;;4.35;2.20;;;;;;;24.87;54.81;102151.09;5043731;28;20082;-72
2023/07/09 06:26:36;;;;;;;7.28;2.30;;;;;;;25.00;54.24;102153.41;5044158;28;20083;-72
2023/07/09 06:29:02;;;;;;;5.22;2.25;;;;;;;25.01;53.81;102151.47;5043713;28;20021;-72
2023/07/09 06:31:27;;;;;;;4.47;2.40;;;;;;;24.70;54.23;102145.72;5043404;28;20032;-72
2023/07/09 06:33:53;;;;;;;4.13;2.30;;;;;;;24.64;56.03;102146.75;5061322;28;20033;-72
2023/07/09 06:36:19;;;;;;;6.80;2.45;;;;;;;24.63;55.90;102149.75;5062086;28;20020;-72
2023/07/09 06:38:45;;;;;;;6.25;2.90;;;;;;;24.65;55.32;102147.56;5062653;28;20028;-72
2023/07/09 06:41:12;;;;;;;5.55;2.45;;;;;;;24.54;55.96;102147.47;5061843;28;20047;-72
2023/07/09 06:43:38;;;;;;;5.60;2.58;;;;;;;24.68;56.12;102147.88;5061535;28;20108;-72
2023/07/09 06:46:05;;;;;;;6.68;2.60;;;;;;;24.81;55.94;102160.38;5043677;28;20032;-72
2023/07/09 06:48:31;;;;;;;4.07;2.47;;;;;;;24.70;55.18;102158.63;5044059;28;20037;-72
2023/07/09 06:50:58;;;;;;;6.25;2.72;;;;;;;24.81;55.53;102155.72;5042533;28;20025;-72
2023/07/09 06:53:25;;;;;;;6.60;2.85;;;;;;;24.54;55.65;102150.22;5059728;28;20116;-72
2023/07/09 06:55:52;;;;;;;3.38;2.58;;;;;;;24.43;56.76;102156.72;5060248;28;20049;-72
2023/07/09 06:58:18;;;;;;;6.97;3.10;;;;;;;24.32;57.75;102154.91;5058899;28;20017;-73
2023/07/09 07:00:45;;;;;;;5.65;2.50;;;;;;;24.37;57.69;102158.56;5022537;28;20025;-73
2023/07/09 07:03:11;;;;;;;4.55;2.53;;;;;;;24.32;57.65;102161.25;5060582;28;20047;-72
2023/07/09 07:05:37;;;;;;;6.15;2.85;;;;;;;24.32;58.53;102161.25;5060452;28;20032;-73
2023/07/09 07:08:03;;;;;;;5.22;2.50;;;;;;;24.28;58.68;102171.13;5061001;28;20055;-72
2023/07/09 07:10:29;;;;;;;5.47;2.75;;;;;;;24.05;58.39;102165.88;5060536;28;20079;-73
2023/07/09 07:12:56;;;;;;;3.83;2.70;;;;;;;23.86;57.74;102163.44;5042878;28;20037;-72
2023/07/09 07:15:21;;;;;;;6.93;2.50;;;;;;;23.95;57.24;102163.03;5041949;28;20021;-73
2023/07/09 07:17:47;;;;;;;6.05;2.55;;;;;;;23.97;56.33;102172.66;5042370;28;20028;-72
2023/07/09 07:20:14;;;;;;;3.58;2.13;;;;;;;23.95;55.35;102163.84;5060417;28;20040;-72
2023/07/09 07:22:40;;;;;;;7.95;2.75;;;;;;;23.83;55.29;102163.13;5026139;28;20518;-72
2023/07/09 07:25:07;;;;;;;4.47;2.45;;;;;;;23.75;55.68;102166.34;5060457;28;20036;-72
2023/07/09 07:27:33;;;;;;;4.57;2.53;;;;;;;23.67;55.39;102164.81;5060166;28;20075;-72
2023/07/09 07:29:59;;;;;;;5.10;2.53;;;;;;;23.45;57.33;102146.38;5060683;28;20025;-72
2023/07/09 07:32:24;;;;;;;5.07;2.60;;;;;;;23.48;58.24;102160.69;5043000;28;20029;-72
2023/07/09 07:34:50;;;;;;;4.60;2.40;;;;;;;23.42;58.33;102160.63;5026373;28;20033;-72
2023/07/09 07:37:20;;;;;;;7.45;2.70;;;;;;;23.56;58.27;102168.50;5059265;28;20060;-72
2023/07/09 07:39:46;;;;;;;5.43;2.60;;;;;;;23.53;58.15;102169.00;5061121;28;20113;-72
2023/07/09 07:42:11;;;;;;;6.78;2.35;;;;;;;23.55;57.95;102169.59;5026640;28;20469;-72
2023/07/09 07:44:37;;;;;;;5.53;2.30;;;;;;;23.54;58.26;102166.03;5043224;28;20147;-72
2023/07/09 07:47:03;;;;;;;3.45;2.30;;;;;;;23.60;57.95;102165.00;5061076;28;20037;-72
2023/07/09 07:49:28;;;;;;;5.45;2.47;;;;;;;23.61;58.04;102158.44;5060699;28;20032;-72
2023/07/09 07:51:54;;;;;;;4.47;2.60;;;;;;;23.65;58.62;102161.50;5060019;28;20033;-72
2023/07/09 07:54:19;;;;;;;6.75;2.65;;;;;;;23.68;58.34;102155.53;5058985;28;20041;-72
2023/07/09 07:56:44;;;;;;;4.75;2.63;;;;;;;23.71;58.41;102166.00;5040417;28;20043;-72
2023/07/09 07:59:10;;;;;;;4.80;2.42;;;;;;;23.67;58.73;102153.81;5041953;28;20132;-72
2023/07/09 08:01:35;;;;;;;5.00;2.55;;;;;;;23.57;60.06;102154.50;5041495;28;20025;-72
2023/07/09 08:04:02;;;;;;;5.50;2.25;;;;;;;23.10;57.24;102105.50;5024690;28;20037;-72
2023/07/09 08:06:28;;;;;;;5.93;3.08;;;;;;;23.19;56.08;102153.41;5041231;28;20431;-72
2023/07/09 08:08:53;;;;;;;7.32;4.07;;;;;;;23.29;57.61;102151.91;5041488;28;20028;-72
2023/07/09 08:11:18;;;;;;;6.90;4.80;;;;;;;23.21;58.26;102155.91;5041591;28;20033;-72
2023/07/09 08:13:44;;;;;;;7.35;4.55;;;;;;;23.33;57.65;102153.91;5060095;28;20021;-72
2023/07/09 08:16:11;;;;;;;4.95;2.80;;;;;;;23.32;58.61;102155.00;5041385;28;20017;-72
2023/07/09 08:18:37;;;;;;;6.78;4.47;;;;;;;23.23;59.35;102150.16;5032885;28;20021;-72
2023/07/09 08:21:03;;;;;;;4.57;2.88;;;;;;;23.23;60.61;102156.50;5041396;28;20369;-72
2023/07/09 08:23:28;;;;;;;4.72;2.55;;;;;;;23.11;59.05;102144.75;5025973;28;20043;-72
2023/07/09 08:25:58;;;;;;;4.38;2.45;;;;;;;23.12;58.01;102157.41;5042387;28;20025;-72
2023/07/09 08:28:24;;;;;;;7.72;2.65;;;;;;;23.14;58.08;102160.72;5042162;28;20083;-72
2023/07/09 08:30:54;;;;;;;4.63;2.53;;;;;;;23.19;59.00;102155.34;5059992;28;20044;-73
2023/07/09 08:33:19;;;;;;;6.70;2.60;;;;;;;23.13;60.00;102156.34;5041876;28;20059;-72
2023/07/09 08:35:45;;;;;;;4.70;2.60;;;;;;;23.07;60.57;102160.91;5059529;28;20029;-72
2023/07/09 08:38:11;;;;;;;4.28;2.42;;;;;;;23.14;60.65;102144.25;5042640;28;20044;-72
2023/07/09 08:40:43;;;;;;;4.65;2.50;;;;;;;23.09;59.36;102152.44;5026886;28;20052;-72
2023/07/09 08:43:24;;;;;;;4.97;3.33;;;;;;;23.11;58.82;102147.50;5042931;28;20119;-72
2023/07/09 08:46:16;;;;;;;7.63;5.35;;;;;;;23.22;60.95;102157.56;5037078;28;20139;-71
2023/07/09 08:48:45;;;;;;;6.70;4.70;;;;;;;23.25;61.67;102156.25;5042751;28;20395;-72
2023/07/09 08:51:20;;;;;;;4.25;3.13;;;;;;;23.30;60.07;102148.06;5060973;28;20020;-72
2023/07/09 08:53:57;;;;;;;4.88;2.63;;;;;;;23.31;59.68;102153.34;5042711;28;20032;-72
2023/07/09 08:56:24;;;;;;;5.90;2.20;;;;;;;23.44;58.46;102155.72;5056928;28;20044;-72
2023/07/09 08:58:53;;;;;;;4.38;2.25;;;;;;;23.51;55.98;102149.19;5058654;28;20037;-72
2023/07/09 09:01:20;;;;;;;3.75;2.42;;;;;;;23.64;55.36;102152.44;5041682;28;20045;-72
2023/07/09 09:03:58;;;;;;;6.05;2.30;;;;;;;23.70;55.16;102156.09;5055897;28;20095;-73
2023/07/09 09:06:29;;;;;;;3.65;2.15;;;;;;;23.73;54.60;102163.00;5037797;28;20055;-72
2023/07/09 09:09:13;;;;;;;3.15;2.15;;;;;;;23.70;54.67;102153.34;5044498;28;20052;-72
2023/07/09 09:12:27;;;;;;;4.15;2.08;;;;;;;23.82;54.63;102162.31;5046652;28;20043;-72
2023/07/09 09:15:01;;;;;;;6.57;4.20;;;;;;;23.76;58.83;102154.25;4980670;28;20049;-72
2023/07/09 09:17:28;;;;;;;;;;;;;;;23.72;57.43;102164.91;5042599;28;20029;-72
2023/07/09 09:20:00;;;;;;;4.95;2.20;;;;;;;23.76;58.75;102160.56;5063719;28;20449;-72
2023/07/09 09:22:49;;;;;;;5.30;2.40;;;;;;;23.81;59.46;102159.81;5061713;28;20021;-72
2023/07/09 09:25:15;;;;;;;4.63;2.50;;;;;;;23.82;61.43;102162.31;5039081;28;20083;-72
2023/07/09 09:27:41;;;;;;;3.42;2.28;;;;;;;23.83;62.51;102152.97;5037842;28;20519;-72
2023/07/09 09:30:25;;;;;;;4.60;2.58;;;;;;;23.97;62.71;102163.56;5038322;28;20112;-72
2023/07/09 09:32:59;;;;;;;4.18;2.55;;;;;;;23.89;64.41;102153.88;5031538;28;20029;-72
2023/07/09 09:35:34;;;;;;;4.40;2.40;;;;;;;23.87;65.68;102153.28;5037518;28;20032;-72
2023/07/09 09:38:00;;;;;;;5.38;2.58;;;;;;;23.85;66.71;102167.28;5055343;28;20126;-72
2023/07/09 09:40:28;;;;;;;3.22;2.50;;;;;;;23.83;66.58;102171.38;5060819;28;20060;-72
2023/07/09 09:43:00;;;;;;;4.22;2.53;;;;;;;23.86;66.87;102173.63;5044147;28;20033;-73
2023/07/09 09:45:38;;;;;;;6.38;2.55;;;;;;;24.00;67.79;102172.13;5043667;28;20067;-72
2023/07/09 09:48:18;;;;;;;8.90;2.75;;;;;;;24.03;68.86;102171.63;5044981;28;20388;-72
2023/07/09 09:50:46;;;;;;;5.03;2.50;;;;;;;23.99;69.33;102170.50;5056001;28;20017;-73
2023/07/09 09:53:19;;;;;;;5.80;2.40;;;;;;;23.98;70.32;102166.09;5063924;28;20025;-72
2023/07/09 09:55:46;;;;;;;5.07;2.58;;;;;;;23.89;70.60;102167.63;5044397;28;20044;-72
2023/07/09 09:58:15;;;;;;;4.82;2.70;;;;;;;24.02;70.56;102171.91;5044128;28;20083;-72
2023/07/09 10:00:47;;;;;;;3.95;2.30;;;;;;;24.25;66.49;102170.78;5045639;28;20025;-72
2023/07/09 10:03:13;;;;;;;4.22;2.20;;;;;;;24.50;62.22;102176.63;5045298;28;20055;-72
2023/07/09 10:05:50;;;;;;;4.97;2.67;;;;;;;24.59;63.99;102175.03;5045188;28;20119;-72
2023/07/09 10:08:20;;;;;;;3.42;2.28;;;;;;;24.45;65.85;102164.72;5043475;28;20033;-72
2023/07/09 10:10:46;;;;;;;4.47;2.50;;;;;;;24.34;68.43;102180.25;5059939;28;20424;-72
2023/07/09 10:13:30;;;;;;;3.38;2.30;;;;;;;24.33;68.16;102173.91;5042221;28;20033;-72
2023/07/09 10:16:15;;;;;;;2.50;2.10;;;;;;;24.18;66.44;102165.50;5062877;28;20021;-73
2023/07/09 10:18:55;;;;;;;4.18;2.28;;;;;;;24.19;65.91;102156.16;5043236;28;20269;-72
2023/07/09 10:21:24;;;;;;;5.05;2.47;;;;;;;24.30;64.76;102163.41;5061446;28;20021;-72
2023/07/09 10:24:30;;;;;;;5.75;2.45;;;;;;;24.27;64.09;102174.09;5059431;28;20021;-71
2023/07/09 10:27:18;;;;;;;6.15;2.67;;;;;;;24.36;64.91;102170.63;4979705;28;20510;-72
2023/07/09 10:29:52;;;;;;;2.78;2.17;;;;;;;24.36;63.83;102172.56;4999275;28;20030;-72
2023/07/09 10:32:31;;;;;;;5.00;3.22;;;;;;;24.26;66.29;102161.44;5026450;28;20029;-72
2023/07/09 10:35:18;;;;;;;8.50;5.93;;;;;;;23.87;73.60;102175.28;5044870;28;20297;-72
2023/07/09 10:37:56;;;;;;;8.57;3.70;;;;;;;23.58;77.43;102178.16;5059104;28;20037;-72
2023/07/09 10:40:36;;;;;;;5.00;3.47;;;;;;;23.32;77.46;102174.22;5062338;28;20021;-72
2023/07/09 10:43:04;;;;;;;4.95;3.10;;;;;;;23.22;78.57;102179.56;5062683;28;20032;-72
2023/07/09 10:45:37;;;;;;;4.38;2.80;;;;;;;23.14;79.17;102178.03;5062551;28;20083;-72
2023/07/09 10:48:12;;;;;;;6.53;3.20;;;;;;;23.11;78.36;102174.97;5045804;28;20063;-72
2023/07/09 10:50:41;;;;;;;5.70;2.83;;;;;;;23.09;76.00;102153.25;5053333;28;20005;-72
2023/07/09 10:53:14;;;;;;;4.15;2.20;;;;;;;23.15;72.25;102159.66;5071024;28;20464;-72
2023/07/09 10:56:03;;;;;;;5.93;2.85;;;;;;;23.30;73.80;102161.81;5051547;28;20049;-72
2023/07/09 10:58:34;;;;;;;6.05;2.95;;;;;;;23.19;75.86;102164.41;5062190;28;20373;-72
2023/07/09 11:01:00;;;;;;;5.75;2.90;;;;;;;22.98;77.42;102156.94;5063308;28;20395;-72
2023/07/09 11:03:51;;;;;;;5.53;2.97;;;;;;;23.10;78.80;102165.88;5044343;28;20119;-71
2023/07/09 11:06:41;;;;;;;5.88;2.90;;;;;;;23.00;79.68;102165.72;5053710;28;20386;-72
2023/07/09 11:09:29;;;;;;;7.47;3.22;;;;;;;22.89;80.40;102142.75;5060131;28;20037;-72
2023/07/09 11:11:57;;;;;;;3.35;2.38;;;;;;;22.84;78.95;102139.06;5061294;28;20069;-72
2023/07/09 11:14:26;;;;;;;4.00;2.40;;;;;;;23.06;74.13;102163.91;5061852;28;20064;-72
2023/07/09 11:16:55;;;;;;;6.72;2.67;;;;;;;23.09;73.51;102163.41;5043665;28;20028;-72
2023/07/09 11:19:21;;;;;;;4.22;2.72;;;;;;;22.97;74.40;102139.59;5061273;28;20452;-72
2023/07/09 11:22:14;;;;;;;7.07;2.80;;;;;;;23.09;75.24;102147.75;5043840;28;20024;-72
2023/07/09 11:25:04;;;;;;;3.67;2.85;;;;;;;23.10;75.06;102140.34;5043173;28;20051;-72
2023/07/09 11:27:31;;;;;;;3.95;2.80;;;;;;;23.23;75.77;102145.50;5058475;28;20029;-72
2023/07/09 11:30:03;;;;;;;4.05;2.85;;;;;;;23.58;76.73;102144.38;5023385;28;20446;-72
2023/07/09 11:32:29;;;;;;;4.60;2.78;;;;;;;23.91;76.71;102144.28;5060518;28;20035;-72